Time;durP1;ratioP1;P1;durP2;ratioP2;P2;SDS_P1;SDS_P2;PMS_P1;PMS_P2;Temp;Humidity;BMP_temperature;BMP_pressure;BME280_temperature;BME280_humidity;BME280_pressure;Samples;Min_cycle;Max_cycle;Signal;HPM_P1;HPM_P2
2022/10/09 00:01:04;;;;;;;10.87;6.90;;;8.40;99.90;;;;;;5072279;28;20628;-85
2022/10/09 00:03:34;;;;;;;8.47;6.60;;;8.20;99.90;;;;;;5071763;28;20648;-85
2022/10/09 00:06:01;;;;;;;8.37;5.90;;;8.00;99.90;;;;;;5071975;28;20638;-85
2022/10/09 00:08:27;;;;;;;8.00;6.77;;;7.90;99.90;;;;;;5072423;28;20625;-85
2022/10/09 00:10:55;;;;;;;8.97;7.37;;;7.90;99.90;;;;;;5073121;28;20712;-85
2022/10/09 00:13:22;;;;;;;7.60;6.83;;;8.00;99.90;;;;;;5071028;28;20659;-85
2022/10/09 00:15:49;;;;;;;8.53;7.33;;;8.10;99.90;;;;;;5071239;28;20628;-85
2022/10/09 00:18:18;;;;;;;8.43;6.60;;;8.30;99.90;;;;;;5072542;28;20672;-84
2022/10/09 00:20:47;;;;;;;7.93;6.40;;;8.30;99.90;;;;;;5072312;28;20605;-85
2022/10/09 00:23:16;;;;;;;9.37;8.00;;;7.90;99.90;;;;;;5070848;28;20686;-85
2022/10/09 00:25:51;;;;;;;10.50;7.47;;;7.90;99.90;;;;;;5072032;28;20638;-85
2022/10/09 00:28:18;;;;;;;9.30;6.70;;;7.80;99.90;;;;;;5068660;28;21044;-86
2022/10/09 00:30:44;;;;;;;11.87;7.33;;;8.00;99.90;;;;;;5071006;28;20972;-85
2022/10/09 00:33:11;;;;;;;12.80;8.90;;;7.90;99.90;;;;;;5071406;28;20668;-85
2022/10/09 00:35:38;;;;;;;9.13;6.80;;;8.10;99.90;;;;;;5070947;28;20639;-85
2022/10/09 00:38:08;;;;;;;9.40;7.50;;;8.20;99.90;;;;;;5071720;28;21211;-85
2022/10/09 00:40:36;;;;;;;9.63;7.00;;;8.00;99.90;;;;;;5072623;28;20993;-85
2022/10/09 00:43:04;;;;;;;8.60;6.53;;;8.00;99.90;;;;;;5071129;28;20676;-85
2022/10/09 00:45:31;;;;;;;7.60;7.00;;;7.90;99.90;;;;;;5070732;28;20620;-85
2022/10/09 00:48:01;;;;;;;10.53;7.23;;;8.00;99.90;;;;;;5071104;28;21197;-85
2022/10/09 00:50:35;;;;;;;13.67;7.37;;;8.10;99.90;;;;;;5068853;28;20635;-85
2022/10/09 00:53:02;;;;;;;9.50;7.60;;;8.20;99.90;;;;;;5070488;28;20660;-85
2022/10/09 00:55:34;;;;;;;11.90;7.53;;;7.90;99.90;;;;;;5072005;28;20723;-85
2022/10/09 00:58:02;;;;;;;7.40;6.53;;;7.80;99.90;;;;;;5073423;28;20653;-85
2022/10/09 01:00:29;;;;;;;8.43;6.70;;;7.90;99.90;;;;;;5070976;28;20627;-85
2022/10/09 01:02:56;;;;;;;9.53;6.50;;;7.90;99.90;;;;;;5070434;28;20632;-85
2022/10/09 01:05:26;;;;;;;13.10;7.30;;;7.80;99.90;;;;;;5071217;28;20618;-85
2022/10/09 01:08:01;;;;;;;12.90;7.60;;;7.80;99.90;;;;;;5071319;28;21337;-85
2022/10/09 01:10:39;;;;;;;8.43;7.73;;;7.50;99.90;;;;;;5070701;28;20650;-85
2022/10/09 01:13:11;;;;;;;8.00;7.20;;;7.70;99.90;;;;;;5072166;28;20683;-86
2022/10/09 01:15:44;;;;;;;8.40;7.30;;;7.80;99.90;;;;;;5070737;28;21458;-86
2022/10/09 01:18:16;;;;;;;8.83;7.67;;;7.30;99.90;;;;;;5073060;28;20656;-86
2022/10/09 01:20:48;;;;;;;12.20;7.43;;;7.40;99.90;;;;;;5070601;28;20629;-86
2022/10/09 01:23:42;;;;;;;9.43;6.57;;;7.30;99.90;;;;;;5070577;28;20671;-86
2022/10/09 01:26:23;;;;;;;9.07;7.50;;;7.70;99.90;;;;;;5070619;28;20631;-86
2022/10/09 01:28:55;;;;;;;8.80;7.33;;;7.70;99.90;;;;;;5070165;28;20624;-85
2022/10/09 01:31:24;;;;;;;8.40;7.60;;;7.60;99.90;;;;;;5070231;28;20636;-85
2022/10/09 01:33:51;;;;;;;8.50;7.57;;;7.50;99.90;;;;;;5069515;28;20652;-86
2022/10/09 01:36:20;;;;;;;8.03;7.23;;;7.10;99.90;;;;;;5070245;28;20982;-84
2022/10/09 01:38:48;;;;;;;10.60;7.33;;;7.30;99.90;;;;;;5070151;28;23365;-84
2022/10/09 01:41:15;;;;;;;9.20;7.40;;;7.20;99.90;;;;;;5071233;28;20657;-84
2022/10/09 01:43:42;;;;;;;9.80;7.80;;;7.20;99.90;;;;;;5071365;28;20660;-85
2022/10/09 01:46:22;;;;;;;8.87;8.07;;;6.90;99.90;;;;;;5073485;28;20629;-84
2022/10/09 01:49:10;;;;;;;8.60;7.80;;;7.00;99.90;;;;;;5079870;28;20628;-85
2022/10/09 01:51:46;;;;;;;13.57;10.17;;;7.60;99.90;;;;;;5086510;28;20972;-87
2022/10/09 01:54:19;;;;;;;9.13;8.33;;;7.40;99.90;;;;;;5095994;28;20644;-85
2022/10/09 01:56:49;;;;;;;9.27;8.37;;;7.20;99.90;;;;;;5097447;28;20620;-85
2022/10/09 01:59:19;;;;;;;10.00;9.00;;;6.90;99.90;;;;;;5096967;28;20664;-85
2022/10/09 02:01:49;;;;;;;11.10;8.90;;;7.00;99.90;;;;;;5077081;28;20630;-86
2022/10/09 02:04:18;;;;;;;10.93;9.70;;;6.90;99.90;;;;;;5069901;28;20660;-86
2022/10/09 02:06:46;;;;;;;10.83;9.83;;;7.20;99.90;;;;;;5070584;28;20628;-85
2022/10/09 02:09:17;;;;;;;10.37;8.83;;;7.50;99.90;;;;;;5069838;28;20723;-85
2022/10/09 02:11:48;;;;;;;13.30;8.90;;;7.10;99.90;;;;;;5070144;28;20651;-84
2022/10/09 02:14:15;;;;;;;9.90;8.77;;;7.20;99.90;;;;;;5069683;28;20663;-84
2022/10/09 02:16:45;;;;;;;9.70;8.83;;;7.10;99.90;;;;;;5071828;28;20646;-84
2022/10/09 02:19:16;;;;;;;11.07;8.93;;;7.30;99.90;;;;;;5070667;28;20759;-83
2022/10/09 02:21:47;;;;;;;11.10;7.93;;;7.20;99.90;;;;;;5070829;28;20632;-86
2022/10/09 02:24:18;;;;;;;9.67;7.83;;;7.40;99.90;;;;;;5069587;28;20659;-86
2022/10/09 02:26:46;;;;;;;7.97;6.93;;;7.40;99.90;;;;;;5068066;28;20682;-85
2022/10/09 02:29:14;;;;;;;9.17;8.27;;;7.30;99.90;;;;;;5069662;28;20616;-85
2022/10/09 02:31:43;;;;;;;6.40;5.90;;;7.10;99.90;;;;;;5070166;28;20633;-85
2022/10/09 02:34:16;;;;;;;6.70;6.00;;;7.60;99.90;;;;;;5068442;28;20656;-86
2022/10/09 02:36:43;;;;;;;7.63;6.33;;;7.30;99.90;;;;;;5068749;28;20663;-85
2022/10/09 02:39:10;;;;;;;10.07;6.40;;;7.10;99.90;;;;;;5070426;28;20661;-85
2022/10/09 02:41:37;;;;;;;7.43;6.50;;;7.00;99.90;;;;;;5069972;28;21148;-85
2022/10/09 02:44:05;;;;;;;8.30;6.23;;;6.80;99.90;;;;;;5069103;28;21317;-85
2022/10/09 02:46:33;;;;;;;10.93;6.10;;;6.80;99.90;;;;;;5069632;28;20730;-85
2022/10/09 02:49:00;;;;;;;8.43;6.00;;;7.00;99.90;;;;;;5069040;28;21293;-85
2022/10/09 02:51:28;;;;;;;7.37;6.57;;;7.40;99.90;;;;;;5069342;28;20637;-85
2022/10/09 02:53:55;;;;;;;7.23;6.00;;;6.90;99.90;;;;;;5070056;28;20704;-85
2022/10/09 02:56:22;;;;;;;8.43;5.87;;;6.70;99.90;;;;;;5070158;28;20633;-86
2022/10/09 02:58:50;;;;;;;7.47;5.63;;;6.80;99.90;;;;;;5071003;28;21115;-86
2022/10/09 03:01:16;;;;;;;7.00;5.30;;;6.90;99.90;;;;;;5069571;28;20620;-86
2022/10/09 03:03:44;;;;;;;9.03;5.80;;;6.90;99.90;;;;;;5070455;28;20903;-86
2022/10/09 03:06:12;;;;;;;8.80;5.60;;;6.70;99.90;;;;;;5069427;28;21167;-85
2022/10/09 03:08:43;;;;;;;7.83;5.53;;;6.60;99.90;;;;;;5072801;28;20647;-85
2022/10/09 03:11:10;;;;;;;7.93;5.57;;;6.70;99.90;;;;;;5069933;28;20901;-85
2022/10/09 03:13:38;;;;;;;7.40;6.10;;;7.20;99.90;;;;;;5070306;28;21021;-85
2022/10/09 03:16:05;;;;;;;7.40;5.40;;;6.80;99.90;;;;;;5070704;28;20628;-85
2022/10/09 03:18:32;;;;;;;5.70;5.20;;;6.90;99.90;;;;;;5071558;28;20660;-85
2022/10/09 03:20:58;;;;;;;9.80;5.60;;;6.60;99.90;;;;;;5070566;28;20981;-83
2022/10/09 03:23:26;;;;;;;8.30;6.30;;;7.00;99.90;;;;;;5068412;28;20678;-84
2022/10/09 03:25:58;;;;;;;6.80;5.90;;;7.00;99.90;;;;;;5069048;28;20642;-84
2022/10/09 03:28:25;;;;;;;7.07;5.93;;;6.90;99.90;;;;;;5074954;28;21211;-83
2022/10/09 03:30:52;;;;;;;11.33;7.30;;;6.50;99.90;;;;;;5071816;28;20632;-84
2022/10/09 03:33:19;;;;;;;9.73;6.90;;;6.70;99.90;;;;;;5073168;28;20674;-84
2022/10/09 03:35:47;;;;;;;11.30;7.37;;;6.60;99.90;;;;;;5074198;28;20638;-84
2022/10/09 03:38:14;;;;;;;9.63;7.80;;;6.70;99.90;;;;;;5073161;28;21693;-84
2022/10/09 03:40:41;;;;;;;11.53;7.50;;;6.60;99.90;;;;;;5073283;28;20671;-84
2022/10/09 03:43:09;;;;;;;10.60;8.50;;;6.50;99.90;;;;;;5072067;28;20667;-85
2022/10/09 03:45:39;;;;;;;7.93;7.13;;;6.40;99.90;;;;;;5073867;28;20653;-84
2022/10/09 03:48:06;;;;;;;8.67;7.77;;;6.80;99.90;;;;;;5073420;28;20668;-85
2022/10/09 03:50:33;;;;;;;9.77;7.37;;;6.50;99.90;;;;;;5074900;28;21393;-84
2022/10/09 03:52:59;;;;;;;12.40;8.40;;;7.10;99.90;;;;;;5071654;28;20664;-85
2022/10/09 03:55:26;;;;;;;11.93;7.33;;;6.90;99.90;;;;;;5072493;28;20809;-85
2022/10/09 03:57:53;;;;;;;9.60;6.87;;;6.60;99.90;;;;;;5074007;28;20631;-85
2022/10/09 04:00:21;;;;;;;8.20;6.47;;;6.50;99.90;;;;;;5076925;28;20672;-84
2022/10/09 04:02:48;;;;;;;9.90;7.50;;;7.00;99.90;;;;;;5073887;28;20624;-85
2022/10/09 04:05:15;;;;;;;10.40;5.87;;;6.70;99.90;;;;;;5071341;28;20632;-85
2022/10/09 04:07:42;;;;;;;8.07;6.10;;;6.50;99.90;;;;;;5072360;28;20625;-85
2022/10/09 04:10:09;;;;;;;10.00;5.20;;;6.90;99.90;;;;;;5074480;28;20621;-85
2022/10/09 04:12:36;;;;;;;6.43;5.20;;;6.80;99.90;;;;;;5073378;28;20639;-86
2022/10/09 04:15:04;;;;;;;8.80;6.70;;;7.00;99.90;;;;;;5072983;28;20667;-85
2022/10/09 04:17:32;;;;;;;8.20;5.63;;;6.70;99.90;;;;;;5073296;28;20626;-86
2022/10/09 04:19:58;;;;;;;9.43;5.50;;;6.90;99.90;;;;;;4722886;28;9999924;-85
2022/10/09 04:22:26;;;;;;;8.20;6.50;;;6.90;99.90;;;;;;5073178;28;20563;-85
2022/10/09 04:24:52;;;;;;;11.53;6.40;;;6.40;99.90;;;;;;5073647;28;20668;-86
2022/10/09 04:27:19;;;;;;;14.37;6.53;;;6.80;99.90;;;;;;5070612;28;20636;-85
2022/10/09 04:29:46;;;;;;;9.23;7.07;;;6.50;99.90;;;;;;5071182;28;20653;-86
2022/10/09 04:32:13;;;;;;;7.20;6.50;;;6.50;99.90;;;;;;5073684;28;20640;-85
2022/10/09 04:34:41;;;;;;;9.67;6.87;;;6.60;99.90;;;;;;5075320;28;20660;-86
2022/10/09 04:37:08;;;;;;;11.47;7.33;;;6.60;99.90;;;;;;5071593;28;20629;-86
2022/10/09 04:39:35;;;;;;;12.17;6.33;;;6.40;99.90;;;;;;5072712;28;20669;-86
2022/10/09 04:42:01;;;;;;;10.60;5.87;;;6.90;99.90;;;;;;5072577;28;20654;-85
2022/10/09 04:44:28;;;;;;;6.07;5.47;;;6.50;99.90;;;;;;5070731;28;20667;-85
2022/10/09 04:46:55;;;;;;;6.53;5.87;;;6.70;99.90;;;;;;5072275;28;20629;-86
2022/10/09 04:49:22;;;;;;;9.40;7.10;;;6.60;99.90;;;;;;5072660;28;20648;-85
2022/10/09 04:51:50;;;;;;;14.33;6.20;;;6.60;99.90;;;;;;5071860;28;20645;-86
2022/10/09 04:54:17;;;;;;;6.57;6.07;;;6.40;99.90;;;;;;5071668;28;20686;-85
2022/10/09 04:56:43;;;;;;;9.63;7.37;;;6.40;99.90;;;;;;5072145;28;20699;-85
2022/10/09 04:59:10;;;;;;;8.70;6.43;;;6.40;99.90;;;;;;5071788;28;20635;-85
2022/10/09 05:01:37;;;;;;;9.57;8.57;;;6.80;99.90;;;;;;5072531;28;21193;-86
2022/10/09 05:04:03;;;;;;;15.07;12.10;;;6.40;99.90;;;;;;5070845;28;20670;-85
2022/10/09 05:06:30;;;;;;;9.13;7.90;;;6.40;99.90;;;;;;5070754;28;21222;-85
2022/10/09 05:08:58;;;;;;;10.10;8.43;;;6.60;99.90;;;;;;5071145;28;20628;-86
2022/10/09 05:11:26;;;;;;;11.67;8.70;;;7.00;99.90;;;;;;5071718;28;20636;-85
2022/10/09 05:13:54;;;;;;;8.97;6.70;;;6.90;99.90;;;;;;5072344;28;20653;-85
2022/10/09 05:16:24;;;;;;;9.23;7.37;;;7.00;99.90;;;;;;5070387;28;20628;-85
2022/10/09 05:18:52;;;;;;;9.63;8.27;;;6.50;99.90;;;;;;5069892;28;20625;-85
2022/10/09 05:21:20;;;;;;;9.17;5.93;;;6.30;99.90;;;;;;5070868;28;20718;-85
2022/10/09 05:23:47;;;;;;;7.80;7.00;;;6.70;99.90;;;;;;5071271;28;20664;-85
2022/10/09 05:26:17;;;;;;;8.40;7.17;;;6.40;99.90;;;;;;5071693;28;20647;-85
2022/10/09 05:28:44;;;;;;;9.67;7.70;;;6.50;99.90;;;;;;5070666;28;20637;-85
2022/10/09 05:31:17;;;;;;;9.80;7.40;;;6.50;99.90;;;;;;5070882;28;20621;-85
2022/10/09 05:33:44;;;;;;;9.67;6.60;;;6.60;99.90;;;;;;5071304;28;20652;-85
2022/10/09 05:36:10;;;;;;;9.80;6.53;;;6.70;99.90;;;;;;5070412;28;20633;-85
2022/10/09 05:38:37;;;;;;;10.03;8.07;;;6.60;99.90;;;;;;5070567;28;20620;-85
2022/10/09 05:41:06;;;;;;;11.50;7.03;;;6.70;99.90;;;;;;5070858;28;20671;-85
2022/10/09 05:43:36;;;;;;;8.27;6.80;;;6.80;99.90;;;;;;5072750;28;20682;-85
2022/10/09 05:46:07;;;;;;;8.07;7.23;;;6.20;99.90;;;;;;5071441;28;20632;-85
2022/10/09 05:48:34;;;;;;;10.50;7.23;;;6.90;99.90;;;;;;5069229;28;20756;-85
2022/10/09 05:51:12;;;;;;;11.40;7.77;;;6.70;99.90;;;;;;5071596;28;20644;-85
2022/10/09 05:53:39;;;;;;;10.43;7.27;;;6.70;99.90;;;;;;5069245;28;20850;-85
2022/10/09 05:56:14;;;;;;;9.90;6.53;;;6.30;99.90;;;;;;5071003;28;20640;-84
2022/10/09 05:58:42;;;;;;;9.70;7.20;;;6.60;99.90;;;;;;5071882;28;20632;-85
2022/10/09 06:01:09;;;;;;;10.43;8.10;;;6.80;99.90;;;;;;5070702;28;20660;-85
2022/10/09 06:03:37;;;;;;;8.40;7.50;;;6.60;99.90;;;;;;5070238;28;20659;-85
2022/10/09 06:06:05;;;;;;;8.03;6.60;;;6.60;99.90;;;;;;5070257;28;20643;-85
2022/10/09 06:08:33;;;;;;;8.30;7.03;;;7.00;99.90;;;;;;5070868;28;20933;-86
2022/10/09 06:11:08;;;;;;;8.73;7.37;;;6.40;99.90;;;;;;5071656;28;20638;-85
2022/10/09 06:13:35;;;;;;;9.17;7.30;;;6.70;99.90;;;;;;5075242;28;20694;-85
2022/10/09 06:16:03;;;;;;;9.43;7.10;;;7.00;99.90;;;;;;5070907;28;20663;-84
2022/10/09 06:18:30;;;;;;;7.10;6.40;;;7.20;99.90;;;;;;5073026;28;20771;-85
2022/10/09 06:20:59;;;;;;;8.63;6.90;;;7.00;99.90;;;;;;5070600;28;20667;-84
2022/10/09 06:23:27;;;;;;;9.60;7.00;;;6.60;99.90;;;;;;5076839;28;20634;-85
2022/10/09 06:25:55;;;;;;;8.07;6.10;;;6.60;99.90;;;;;;5073880;28;20636;-86
2022/10/09 06:28:22;;;;;;;6.40;5.90;;;6.70;99.90;;;;;;5070911;28;21641;-84
2022/10/09 06:30:50;;;;;;;8.17;6.23;;;6.80;99.90;;;;;;5069240;28;20620;-86
2022/10/09 06:33:19;;;;;;;6.93;6.13;;;7.40;99.90;;;;;;5075512;28;20627;-85
2022/10/09 06:35:45;;;;;;;8.00;6.43;;;7.60;99.90;;;;;;5069163;28;21254;-85
2022/10/09 06:38:14;;;;;;;9.00;6.63;;;7.30;99.90;;;;;;5070187;28;20652;-85
2022/10/09 06:40:41;;;;;;;8.37;6.20;;;7.10;99.90;;;;;;5067154;28;20687;-84
2022/10/09 06:43:07;;;;;;;7.27;6.57;;;7.30;99.90;;;;;;5070146;28;21001;-84
2022/10/09 06:45:40;;;;;;;8.33;6.13;;;7.60;99.90;;;;;;5069853;28;20620;-84
2022/10/09 06:48:06;;;;;;;10.70;9.70;;;7.50;99.90;;;;;;5070118;28;20662;-84
2022/10/09 06:50:37;;;;;;;10.03;8.97;;;7.60;99.90;;;;;;5068912;28;20674;-84
2022/10/09 06:53:04;;;;;;;11.33;10.23;;;7.50;99.90;;;;;;5069316;28;20644;-85
2022/10/09 06:55:32;;;;;;;11.00;9.90;;;7.30;99.90;;;;;;5068038;28;20632;-85
2022/10/09 06:58:01;;;;;;;10.73;9.83;;;7.10;99.90;;;;;;5070031;28;20656;-85
2022/10/09 07:00:28;;;;;;;18.03;11.23;;;7.40;99.90;;;;;;5070707;28;20690;-85
2022/10/09 07:02:55;;;;;;;10.03;8.37;;;7.70;99.90;;;;;;5074489;28;22414;-85
2022/10/09 07:05:22;;;;;;;9.93;8.93;;;7.70;99.90;;;;;;5072520;28;20640;-86
2022/10/09 07:07:50;;;;;;;10.43;9.30;;;8.20;99.90;;;;;;5072278;28;20648;-86
2022/10/09 07:10:24;;;;;;;10.47;8.77;;;8.20;99.90;;;;;;5093608;28;20619;-84
2022/10/09 07:12:51;;;;;;;8.83;8.13;;;8.40;99.90;;;;;;5080160;28;20634;-85
2022/10/09 07:15:18;;;;;;;9.37;8.43;;;7.90;99.90;;;;;;5073978;28;20603;-85
2022/10/09 07:17:45;;;;;;;9.80;8.80;;;8.50;99.90;;;;;;5072681;28;20663;-86
2022/10/09 07:20:12;;;;;;;9.63;8.63;;;8.20;99.90;;;;;;5072679;28;20658;-86
2022/10/09 07:22:38;;;;;;;12.17;9.30;;;8.40;99.90;;;;;;5070995;28;20635;-85
2022/10/09 07:25:11;;;;;;;9.63;8.83;;;8.00;99.90;;;;;;5072826;28;20970;-85
2022/10/09 07:27:38;;;;;;;10.57;9.57;;;8.80;99.90;;;;;;5072684;28;21305;-85
2022/10/09 07:30:05;;;;;;;7.87;7.10;;;8.60;99.90;;;;;;5072164;28;20643;-86
2022/10/09 07:32:35;;;;;;;9.77;8.80;;;9.10;99.90;;;;;;5071991;28;20633;-86
2022/10/09 07:35:02;;;;;;;11.63;9.60;;;9.30;99.90;;;;;;5075862;28;20638;-86
2022/10/09 07:37:29;;;;;;;8.70;7.40;;;9.40;99.90;;;;;;5083315;28;20647;-85
2022/10/09 07:39:56;;;;;;;8.63;7.73;;;9.30;99.90;;;;;;5084956;28;20638;-87
2022/10/09 07:42:24;;;;;;;9.77;7.93;;;9.30;99.90;;;;;;5086307;28;21006;-85
2022/10/09 07:44:51;;;;;;;8.30;7.10;;;10.00;99.90;;;;;;5089054;28;20631;-86
2022/10/09 07:47:17;;;;;;;7.37;6.67;;;9.70;99.90;;;;;;5086153;28;20661;-86
2022/10/09 07:49:44;;;;;;;6.20;5.70;;;10.30;99.90;;;;;;5084914;28;20633;-85
2022/10/09 07:52:11;;;;;;;7.13;5.80;;;10.40;99.90;;;;;;5088539;28;20698;-86
2022/10/09 07:54:38;;;;;;;7.23;6.53;;;10.50;99.90;;;;;;5071880;28;20628;-86
2022/10/09 07:57:05;;;;;;;8.77;6.97;;;10.60;99.90;;;;;;5072132;28;20651;-85
2022/10/09 07:59:34;;;;;;;8.13;7.33;;;10.70;99.90;;;;;;5072014;28;20624;-85
2022/10/09 08:02:01;;;;;;;6.83;6.23;;;10.00;99.90;;;;;;5071756;28;21628;-85
2022/10/09 08:04:27;;;;;;;8.83;6.83;;;10.50;99.90;;;;;;5074240;28;20590;-85
2022/10/09 08:06:58;;;;;;;7.70;7.00;;;10.10;99.90;;;;;;5077155;28;20628;-85
2022/10/09 08:09:25;;;;;;;6.80;6.20;;;10.70;99.90;;;;;;5074019;28;20702;-85
2022/10/09 08:11:52;;;;;;;7.30;6.13;;;10.50;99.90;;;;;;5072007;28;20617;-85
2022/10/09 08:14:19;;;;;;;7.10;5.80;;;10.80;99.90;;;;;;5071792;28;20634;-85
2022/10/09 08:16:47;;;;;;;8.70;6.77;;;11.10;99.90;;;;;;5072556;28;20655;-86
2022/10/09 08:19:14;;;;;;;12.87;6.57;;;11.30;99.90;;;;;;5072246;28;20635;-86
2022/10/09 08:21:41;;;;;;;7.80;6.30;;;11.40;99.90;;;;;;5071643;28;21304;-85
2022/10/09 08:24:11;;;;;;;11.80;5.70;;;11.40;99.90;;;;;;5070150;28;20623;-85
2022/10/09 08:26:38;;;;;;;6.00;5.53;;;11.20;99.90;;;;;;5070030;28;20639;-85
2022/10/09 08:29:07;;;;;;;4.77;4.30;;;11.60;99.90;;;;;;5071246;28;20633;-85
2022/10/09 08:31:34;;;;;;;5.90;4.43;;;11.80;99.90;;;;;;5070950;28;20664;-85
2022/10/09 08:34:03;;;;;;;7.93;5.40;;;12.10;99.90;;;;;;5072507;28;20798;-85
2022/10/09 08:36:30;;;;;;;4.13;3.80;;;12.30;99.90;;;;;;5070366;28;20625;-85
2022/10/09 08:38:58;;;;;;;9.77;3.43;;;12.60;99.90;;;;;;5070920;28;20662;-86
2022/10/09 08:41:40;;;;;;;6.60;3.40;;;13.00;99.90;;;;;;5070895;28;20660;-85
2022/10/09 08:44:17;;;;;;;7.73;2.37;;;13.20;99.90;;;;;;5071016;28;21057;-85
2022/10/09 08:46:53;;;;;;;4.33;2.30;;;13.30;99.90;;;;;;5070796;28;20638;-87
2022/10/09 08:49:25;;;;;;;3.57;2.30;;;13.60;99.90;;;;;;5069402;28;20648;-85
2022/10/09 08:51:54;;;;;;;7.33;3.17;;;13.80;99.90;;;;;;5073737;28;20685;-86
2022/10/09 08:54:30;;;;;;;4.43;2.93;;;14.10;99.90;;;;;;5074680;28;20637;-86
2022/10/09 08:57:00;;;;;;;7.93;2.70;;;14.30;99.90;;;;;;5070676;28;21028;-86
2022/10/09 08:59:27;;;;;;;11.83;4.20;;;14.50;99.90;;;;;;5070599;28;20641;-86
2022/10/09 09:02:03;;;;;;;3.87;2.47;;;14.70;99.90;;;;;;5070809;28;21214;-86
2022/10/09 09:04:45;;;;;;;4.33;2.47;;;14.80;99.90;;;;;;5076012;28;20625;-86
2022/10/09 09:07:20;;;;;;;3.57;2.13;;;15.00;99.90;;;;;;5070098;28;20756;-87
2022/10/09 09:09:53;;;;;;;4.93;2.30;;;14.60;99.90;;;;;;5070595;28;20624;-87
2022/10/09 09:12:32;;;;;;;3.30;2.43;;;14.90;99.90;;;;;;5070088;28;20612;-86
2022/10/09 09:15:24;;;;;;;3.20;2.07;;;15.00;99.90;;;;;;5069826;28;20709;-86
2022/10/09 09:18:00;;;;;;;4.20;2.93;;;15.30;99.90;;;;;;5070546;28;20734;-87
2022/10/09 09:20:37;;;;;;;6.23;2.00;;;15.40;99.90;;;;;;5071372;28;20642;-87
2022/10/09 09:23:12;;;;;;;3.70;2.00;;;15.50;99.90;;;;;;5069085;28;20624;-86
2022/10/09 09:25:41;;;;;;;4.27;2.20;;;15.50;99.90;;;;;;5070176;28;20616;-87
2022/10/09 09:28:15;;;;;;;3.67;1.80;;;15.50;99.90;;;;;;5069497;28;20667;-86
2022/10/09 09:30:46;;;;;;;2.60;2.07;;;15.70;99.90;;;;;;5070446;28;20619;-88
2022/10/09 09:33:21;;;;;;;1.60;1.50;;;16.00;99.90;;;;;;5070548;28;20627;-87
2022/10/09 09:35:55;;;;;;;3.57;1.90;;;15.70;99.90;;;;;;5069306;28;20647;-85
2022/10/09 09:38:22;;;;;;;2.60;1.60;;;16.30;99.90;;;;;;5069257;28;20674;-87
2022/10/09 09:40:49;;;;;;;1.80;1.70;;;17.10;99.90;;;;;;5069840;28;20687;-85
2022/10/09 09:43:20;;;;;;;1.50;1.40;;;17.00;98.50;;;;;;5069913;28;20712;-85
2022/10/09 09:45:52;;;;;;;1.97;1.43;;;16.80;99.90;;;;;;5070026;28;20640;-86
2022/10/09 09:48:26;;;;;;;3.10;1.23;;;17.80;99.90;;;;;;5070413;28;20672;-85
2022/10/09 09:50:58;;;;;;;2.90;1.43;;;18.80;92.40;;;;;;5080249;28;20620;-85
2022/10/09 09:53:29;;;;;;;12.50;1.87;;;17.90;91.40;;;;;;5083369;28;20711;-85
2022/10/09 09:55:58;;;;;;;9.10;1.70;;;17.10;95.90;;;;;;5085889;28;20635;-85
2022/10/09 09:58:32;;;;;;;4.13;1.87;;;17.20;98.90;;;;;;5083896;28;20640;-87
2022/10/09 10:01:02;;;;;;;4.30;1.57;;;17.60;95.40;;;;;;5078857;28;20664;-87
2022/10/09 10:03:29;;;;;;;2.43;1.37;;;17.90;95.10;;;;;;5086543;28;21008;-87
2022/10/09 10:05:58;;;;;;;2.70;1.40;;;19.60;90.10;;;;;;5083507;28;21201;-87
2022/10/09 10:08:34;;;;;;;2.93;1.50;;;19.70;82.90;;;;;;5088201;28;20651;-87
2022/10/09 10:11:05;;;;;;;2.20;1.70;;;19.80;82.00;;;;;;5088479;28;20628;-88
2022/10/09 10:13:36;;;;;;;2.93;0.97;;;20.70;80.30;;;;;;5084905;28;20643;-88
2022/10/09 10:16:05;;;;;;;3.03;1.17;;;21.90;70.70;;;;;;5086125;28;20624;-88
2022/10/09 10:18:39;;;;;;;3.47;1.40;;;22.60;66.20;;;;;;5083651;28;20657;-88
2022/10/09 10:21:11;;;;;;;2.00;1.23;;;22.50;63.80;;;;;;5090272;28;20660;-87
2022/10/09 10:23:41;;;;;;;2.60;1.50;;;23.60;61.00;;;;;;5089777;28;20631;-86
2022/10/09 10:26:15;;;;;;;2.60;1.50;;;21.10;63.10;;;;;;5084377;28;20651;-86
2022/10/09 10:28:49;;;;;;;1.63;1.00;;;20.90;67.60;;;;;;5083940;28;20790;-86
2022/10/09 10:31:33;;;;;;;3.53;1.10;;;22.10;62.00;;;;;;5075893;28;20624;-87
2022/10/09 10:34:03;;;;;;;3.53;1.40;;;22.20;63.70;;;;;;5070476;28;21019;-86
2022/10/09 10:36:34;;;;;;;2.43;1.30;;;24.40;59.20;;;;;;5070285;28;20712;-86
2022/10/09 10:39:08;;;;;;;3.00;1.83;;;25.20;57.20;;;;;;5072344;28;20768;-86
2022/10/09 10:41:41;;;;;;;2.80;1.50;;;25.00;53.00;;;;;;5072746;28;20726;-86
2022/10/09 10:44:16;;;;;;;2.73;1.50;;;25.60;51.30;;;;;;5072799;28;20632;-86
2022/10/09 10:46:48;;;;;;;4.87;1.53;;;25.60;53.10;;;;;;5073143;28;20627;-85
2022/10/09 10:49:19;;;;;;;1.60;1.50;;;23.20;53.10;;;;;;5072764;28;20644;-88
2022/10/09 10:52:15;;;;;;;2.43;1.43;;;23.20;55.30;;;;;;5072522;28;20608;-85
2022/10/09 10:54:50;;;;;;;3.90;1.57;;;25.70;53.10;;;;;;5073726;28;20637;-86
2022/10/09 10:57:23;;;;;;;3.77;1.30;;;25.10;52.70;;;;;;5072881;28;20682;-87
2022/10/09 10:59:56;;;;;;;5.20;1.60;;;22.30;52.80;;;;;;5072864;28;20632;-87
2022/10/09 11:03:02;;;;;;;1.63;1.50;;;24.00;54.30;;;;;;5072820;28;20660;-87
2022/10/09 11:05:37;;;;;;;2.57;1.37;;;24.70;51.50;;;;;;5071151;28;20705;-87
2022/10/09 11:08:18;;;;;;;2.10;1.20;;;22.80;53.00;;;;;;5071070;28;20652;-87
2022/10/09 11:10:56;;;;;;;2.80;1.50;;;21.30;53.00;;;;;;5073494;28;20638;-87
2022/10/09 11:13:27;;;;;;;2.40;1.23;;;22.80;53.50;;;;;;5084772;28;20615;-88
2022/10/09 11:16:05;;;;;;;2.60;1.73;;;22.30;54.20;;;;;;5093832;28;20973;-87
2022/10/09 11:18:51;;;;;;;2.10;1.40;;;22.80;52.90;;;;;;5085511;28;20656;-88
2022/10/09 11:21:31;;;;;;;2.57;1.23;;;22.10;52.40;;;;;;5087718;28;20651;-87
2022/10/09 11:24:17;;;;;;;2.20;1.30;;;22.80;51.20;;;;;;5092233;28;20620;-87
2022/10/09 11:26:54;;;;;;;1.40;1.30;;;23.50;52.40;;;;;;5093606;28;20624;-87
2022/10/09 11:29:27;;;;;;;1.03;0.90;;;20.70;52.00;;;;;;5087733;28;20660;-88
2022/10/09 11:31:57;;;;;;;2.50;1.40;;;20.50;53.80;;;;;;5087507;28;20632;-88
2022/10/09 11:34:30;;;;;;;5.23;1.27;;;21.50;55.20;;;;;;5088426;28;20977;-87
2022/10/09 11:36:58;;;;;;;3.47;3.20;;;21.20;52.60;;;;;;5092483;28;20651;-87
2022/10/09 11:39:29;;;;;;;1.53;1.27;;;20.50;54.50;;;;;;5091356;28;20630;-86
2022/10/09 11:41:57;;;;;;;2.90;2.23;;;20.00;56.20;;;;;;5092109;28;20753;-87
2022/10/09 11:44:44;;;;;;;2.90;2.00;;;20.20;58.20;;;;;;5087105;28;20933;-87
2022/10/09 11:47:18;;;;;;;3.10;1.60;;;22.20;56.10;;;;;;5089671;28;20650;-87
2022/10/09 11:49:59;;;;;;;2.13;1.20;;;22.90;54.00;;;;;;5085335;28;20636;-87
2022/10/09 11:52:36;;;;;;;5.23;1.03;;;21.70;54.40;;;;;;5089270;28;20620;-88
2022/10/09 11:55:21;;;;;;;1.53;1.10;;;20.20;55.30;;;;;;5086075;28;20620;-87
2022/10/09 11:57:48;;;;;;;3.33;1.17;;;20.90;56.20;;;;;;5082885;28;21231;-87
2022/10/09 12:00:16;;;;;;;4.73;1.07;;;20.60;56.30;;;;;;5082615;28;20620;-86
2022/10/09 12:02:44;;;;;;;1.60;1.27;;;20.10;55.90;;;;;;5088968;28;20657;-87
2022/10/09 12:05:20;;;;;;;2.40;1.03;;;20.30;56.90;;;;;;5091564;28;20631;-87
2022/10/09 12:07:46;;;;;;;3.60;1.27;;;21.00;54.80;;;;;;5086690;28;20636;-87
2022/10/09 12:10:31;;;;;;;1.50;0.90;;;19.70;57.10;;;;;;5087485;28;20737;-86
2022/10/09 12:13:00;;;;;;;2.30;1.20;;;20.40;58.50;;;;;;5083328;28;20661;-87
2022/10/09 12:15:36;;;;;;;1.23;0.97;;;21.70;55.80;;;;;;5090328;28;21233;-87
2022/10/09 12:18:15;;;;;;;1.87;1.13;;;23.30;52.80;;;;;;5090389;28;20652;-87
2022/10/09 12:20:46;;;;;;;2.80;1.43;;;22.30;54.60;;;;;;5085181;28;20631;-87
2022/10/09 12:23:18;;;;;;;2.73;1.67;;;21.40;54.20;;;;;;5088517;28;20675;-87
2022/10/09 12:25:47;;;;;;;1.97;1.20;;;21.80;56.00;;;;;;5086426;28;20625;-87
2022/10/09 12:28:25;;;;;;;3.27;1.37;;;21.40;54.50;;;;;;5087038;28;20656;-87
2022/10/09 12:30:52;;;;;;;1.80;1.13;;;22.90;53.00;;;;;;5086111;28;21227;-87
2022/10/09 12:33:25;;;;;;;2.70;1.23;;;24.60;51.30;;;;;;5084710;28;21221;-85
2022/10/09 12:36:00;;;;;;;1.07;0.97;;;22.90;51.20;;;;;;5088062;28;20620;-86
2022/10/09 12:38:28;;;;;;;4.27;1.10;;;22.40;51.80;;;;;;5087535;28;20659;-87
2022/10/09 12:41:00;;;;;;;2.40;1.20;;;22.10;54.80;;;;;;5093207;28;20674;-87
2022/10/09 12:43:28;;;;;;;1.40;1.17;;;24.20;51.00;;;;;;5089258;28;20659;-87
2022/10/09 12:45:55;;;;;;;2.20;1.77;;;22.70;51.70;;;;;;5089979;28;20642;-87
2022/10/09 12:48:25;;;;;;;2.70;1.20;;;23.00;51.90;;;;;;5092353;28;20666;-87
2022/10/09 12:50:52;;;;;;;4.23;1.40;;;23.20;52.40;;;;;;5091242;28;20970;-87
2022/10/09 12:53:21;;;;;;;3.80;1.20;;;24.10;53.00;;;;;;5087043;28;20616;-88
2022/10/09 12:55:51;;;;;;;2.40;1.50;;;25.50;49.00;;;;;;5083476;28;20624;-88
2022/10/09 12:58:23;;;;;;;2.90;1.47;;;27.10;47.60;;;;;;5087636;28;21442;-87
2022/10/09 13:00:52;;;;;;;2.00;1.40;;;27.10;46.70;;;;;;5086907;28;20616;-87
2022/10/09 13:03:24;;;;;;;2.30;1.27;;;27.60;45.90;;;;;;5088763;28;21412;-87
2022/10/09 13:05:51;;;;;;;2.90;1.60;;;24.90;45.80;;;;;;5087624;28;20635;-87